KDRO

Durango-La Plata County Airport

Durango, Colorado, USA
METAR KDRO 211253Z AUTO 00000KT 10SM CLR M12/M16 A3011 RMK AO2 SLP264 T11221156
Observed Flight Rules
Feb-21 @ 12:53 UTC (25 minutes ago) Visual Flight Rules
Wind Visibility Clouds
Calm 10 miles
  • Clear skies
Temperatures Readings
Current -12°C / 10°F
Dewpoint -16°C / 3°F
Humidity 72%
Altimeter 30.11" Hg
Pressure 1026.4 hPa
Elevation 2035
METAR KDRO 211253Z AUTO 00000KT 10SM CLR M12/M16 A3011 RMK AO2 SLP264 T11221156
Observed Flight Rules
Feb-21 @ 12:53 UTC
(25 minutes ago)
VFR
Wind Visibility
Calm 10 miles
Clouds
  • Clear skies
Temperature Dewpoint
-12°C / 10°F -16°C / 3°F
Humidity Altimeter Pressure
72% 30.11" Hg 1026.4 hPa